createdAt,value
2019-02-22T00:01:17.701Z,29.70
2019-02-22T00:03:47.982Z,31.57
2019-02-22T00:06:18.103Z,31.37
2019-02-22T00:08:48.399Z,31.97
2019-02-22T00:11:18.565Z,31.77
2019-02-22T00:13:49.175Z,29.60
2019-02-22T00:16:19.360Z,31.77
2019-02-22T00:18:50.290Z,30.83
2019-02-22T00:21:20.464Z,35.57
2019-02-22T00:23:50.660Z,34.17
2019-02-22T00:26:20.842Z,35.60
2019-02-22T00:28:51.207Z,31.73
2019-02-22T00:31:22.977Z,34.77
2019-02-22T00:33:53.162Z,33.60
2019-02-22T00:36:23.466Z,33.90
2019-02-22T00:38:54.036Z,33.17
2019-02-22T00:41:24.242Z,35.67
2019-02-22T00:43:54.552Z,34.27
2019-02-22T00:46:24.702Z,33.83
2019-02-22T00:49:06.586Z,33.70
2019-02-22T00:51:36.748Z,33.40
2019-02-22T00:54:06.956Z,35.23
2019-02-22T00:56:37.543Z,33.97
2019-02-22T00:59:07.680Z,34.83
2019-02-22T01:01:37.868Z,34.17
2019-02-22T01:04:08.150Z,36.07
2019-02-22T01:06:38.368Z,36.50
2019-02-22T01:09:08.762Z,34.40
2019-02-22T01:11:39.312Z,35.97
2019-02-22T01:14:09.524Z,34.90
2019-02-22T01:16:39.700Z,34.90
2019-02-22T01:19:10.268Z,38.87
2019-02-22T01:21:40.416Z,38.47
2019-02-22T01:24:10.657Z,36.07
2019-02-22T01:26:41.159Z,35.83
2019-02-22T01:29:11.381Z,36.83
2019-02-22T01:31:41.550Z,38.77
2019-02-22T01:34:11.889Z,37.70
2019-02-22T01:36:42.053Z,38.93
2019-02-22T01:39:12.257Z,36.97
2019-02-22T01:41:42.461Z,37.43
2019-02-22T01:44:24.117Z,35.70
2019-02-22T01:46:54.694Z,35.97
2019-02-22T01:49:24.985Z,37.63
2019-02-22T01:51:55.463Z,36.30
2019-02-22T01:54:25.761Z,39.17
2019-02-22T01:56:56.924Z,40.33
2019-02-22T01:59:27.126Z,36.77
2019-02-22T02:01:57.299Z,38.93
2019-02-22T02:04:27.418Z,38.27
2019-02-22T02:06:57.965Z,38.20
2019-02-22T02:09:28.266Z,38.37
2019-02-22T02:11:58.554Z,35.70
2019-02-22T02:14:28.763Z,34.93
2019-02-22T02:16:58.925Z,34.97
2019-02-22T02:19:29.113Z,36.30
2019-02-22T02:21:59.282Z,34.77
2019-02-22T02:24:29.509Z,30.40
2019-02-22T02:26:59.989Z,30.50
2019-02-22T02:29:39.335Z,31.07
2019-02-22T02:32:09.424Z,28.30
2019-02-22T02:34:40.687Z,28.53
2019-02-22T02:37:10.837Z,29.93
2019-02-22T02:39:41.037Z,27.73
2019-02-22T02:42:11.521Z,26.73
2019-02-22T02:44:41.727Z,28.53
2019-02-22T02:47:11.896Z,27.33
2019-02-22T02:49:42.461Z,27.17
2019-02-22T02:52:12.695Z,27.93
2019-02-22T02:54:42.902Z,26.13
2019-02-22T02:57:13.417Z,24.83
2019-02-22T02:59:43.690Z,23.67
2019-02-22T03:02:20.122Z,26.37
2019-02-22T03:04:50.319Z,25.13
2019-02-22T03:07:51.802Z,25.00
2019-02-22T03:10:22.039Z,25.93
2019-02-22T03:12:52.244Z,24.13
2019-02-22T03:15:22.464Z,23.73
2019-02-22T03:17:52.668Z,25.77
2019-02-22T03:20:22.874Z,23.10
2019-02-22T03:22:53.066Z,26.47
2019-02-22T03:25:23.593Z,24.03
2019-02-22T03:27:53.749Z,22.67
2019-02-22T03:30:23.981Z,21.70
2019-02-22T03:32:54.542Z,22.60
2019-02-22T03:35:24.767Z,23.03
2019-02-22T03:37:54.900Z,23.20
2019-02-22T03:40:25.089Z,21.20
2019-02-22T03:42:55.267Z,22.50
2019-02-22T03:45:25.464Z,21.80
2019-02-22T03:47:56.043Z,22.07
2019-02-22T03:50:26.196Z,22.10
2019-02-22T03:53:05.557Z,21.93
2019-02-22T03:55:35.792Z,22.53
2019-02-22T03:58:05.958Z,19.27
2019-02-22T04:00:36.165Z,19.00
2019-02-22T04:03:07.185Z,21.33
2019-02-22T04:05:37.449Z,21.30
2019-02-22T04:08:07.863Z,20.93
2019-02-22T04:10:38.075Z,19.33
2019-02-22T04:13:08.281Z,20.73
2019-02-22T04:15:39.558Z,20.20
2019-02-22T04:18:09.743Z,20.07
2019-02-22T04:20:40.645Z,19.40
2019-02-22T04:23:11.285Z,20.17
2019-02-22T04:25:41.551Z,19.90
2019-02-22T04:28:11.812Z,20.40
2019-02-22T04:30:41.995Z,19.33
2019-02-22T04:33:12.257Z,19.10
2019-02-22T04:35:43.185Z,20.47
2019-02-22T04:38:13.761Z,18.93
2019-02-22T04:40:43.958Z,18.83
2019-02-22T04:43:14.239Z,20.27
2019-02-22T04:45:44.419Z,18.17
2019-02-22T04:48:14.911Z,20.43
2019-02-22T04:50:45.441Z,18.53
2019-02-22T04:53:16.891Z,17.47
2019-02-22T04:55:47.025Z,17.07
2019-02-22T04:58:17.260Z,20.67
2019-02-22T05:00:47.896Z,20.37
2019-02-22T05:03:18.131Z,18.60
2019-02-22T05:05:48.493Z,18.80
2019-02-22T05:08:18.667Z,19.20
2019-02-22T05:10:48.868Z,17.60
2019-02-22T05:13:19.050Z,18.10
2019-02-22T05:15:49.271Z,20.20
2019-02-22T05:18:19.727Z,17.77
2019-02-22T05:20:49.941Z,18.57
2019-02-22T05:23:20.192Z,19.57
2019-02-22T05:25:50.708Z,18.87
2019-02-22T05:28:20.895Z,19.03
2019-02-22T05:30:51.106Z,17.73
2019-02-22T05:33:21.935Z,18.10
2019-02-22T05:35:52.148Z,17.63
2019-02-22T05:38:22.397Z,17.27
2019-02-22T05:40:52.671Z,19.47
2019-02-22T05:43:22.908Z,19.53
2019-02-22T05:45:53.107Z,19.63
2019-02-22T05:48:25.320Z,18.93
2019-02-22T05:50:55.497Z,18.07
2019-02-22T05:53:25.748Z,16.30
2019-02-22T05:55:56.050Z,16.67
2019-02-22T05:58:26.306Z,16.23
2019-02-22T06:00:56.800Z,17.33
2019-02-22T06:03:27.002Z,17.00
2019-02-22T06:05:57.113Z,16.17
2019-02-22T06:08:27.287Z,17.70
2019-02-22T06:10:57.896Z,16.37
2019-02-22T06:13:28.061Z,15.73
2019-02-22T06:15:58.265Z,16.57
2019-02-22T06:18:28.437Z,15.23
2019-02-22T06:20:58.557Z,17.27
2019-02-22T06:23:29.100Z,14.90
2019-02-22T06:25:59.410Z,15.60
2019-02-22T06:28:29.636Z,15.07
2019-02-22T06:30:59.857Z,15.73
2019-02-22T06:33:30.032Z,14.87
2019-02-22T06:36:00.579Z,15.60
2019-02-22T06:38:30.868Z,16.20
2019-02-22T06:41:01.124Z,15.03
2019-02-22T06:43:31.950Z,15.33
2019-02-22T06:46:02.147Z,16.50
2019-02-22T06:48:32.357Z,15.70
2019-02-22T06:51:02.583Z,16.40
2019-02-22T06:53:32.795Z,15.40
2019-02-22T06:56:03.053Z,16.93
2019-02-22T06:58:33.550Z,14.53
2019-02-22T07:01:04.103Z,15.50
2019-02-22T07:03:34.475Z,17.07
2019-02-22T07:06:05.635Z,16.53
2019-02-22T07:08:37.187Z,15.90
2019-02-22T07:11:15.569Z,14.13
2019-02-22T07:13:45.797Z,16.13
2019-02-22T07:16:16.019Z,15.83
2019-02-22T07:18:46.132Z,16.33
2019-02-22T07:21:16.303Z,17.47
2019-02-22T07:23:47.054Z,15.27
2019-02-22T07:26:17.505Z,16.37
2019-02-22T07:28:47.978Z,16.33
2019-02-22T07:31:18.179Z,16.67
2019-02-22T07:33:48.345Z,16.40
2019-02-22T07:36:18.540Z,15.80
2019-02-22T07:38:48.958Z,16.33
2019-02-22T07:41:19.177Z,17.23
2019-02-22T07:43:49.430Z,17.50
2019-02-22T07:46:19.628Z,17.10
2019-02-22T07:48:50.173Z,17.90
2019-02-22T07:51:20.370Z,16.97
2019-02-22T07:53:50.548Z,18.53
2019-02-22T07:56:20.749Z,16.20
2019-02-22T07:58:50.930Z,16.40
2019-02-22T08:01:21.277Z,17.67
2019-02-22T08:03:51.456Z,15.93
2019-02-22T08:06:21.688Z,17.90
2019-02-22T08:08:51.878Z,16.17
2019-02-22T08:11:22.072Z,17.20
2019-02-22T08:13:52.233Z,16.63
2019-02-22T08:16:22.444Z,17.00
2019-02-22T08:19:00.951Z,16.33
2019-02-22T08:21:24.518Z,16.73
2019-02-22T08:23:54.733Z,18.17
2019-02-22T08:26:24.945Z,15.87
2019-02-22T08:28:55.465Z,17.87
2019-02-22T08:31:26.009Z,17.83
2019-02-22T08:33:57.161Z,17.13
2019-02-22T08:36:27.630Z,17.60
2019-02-22T08:38:58.249Z,17.73
2019-02-22T08:41:28.469Z,17.77
2019-02-22T08:43:58.640Z,18.27
2019-02-22T08:46:30.343Z,16.93
2019-02-22T08:49:00.612Z,17.93
2019-02-22T08:51:31.989Z,17.23
2019-02-22T08:54:02.223Z,17.57
2019-02-22T08:56:32.439Z,16.27
2019-02-22T08:59:02.778Z,15.83
2019-02-22T09:01:35.563Z,15.73
2019-02-22T09:04:04.921Z,16.53
2019-02-22T09:06:35.273Z,18.37
2019-02-22T09:09:07.237Z,17.10
2019-02-22T09:11:37.663Z,17.57
2019-02-22T09:14:07.777Z,16.73
2019-02-22T09:16:37.981Z,19.17
2019-02-22T09:19:08.152Z,20.50
2019-02-22T09:21:38.356Z,18.33
2019-02-22T09:24:08.495Z,19.77
2019-02-22T09:26:39.164Z,18.07
2019-02-22T09:29:10.764Z,18.30
2019-02-22T09:31:40.967Z,18.43
2019-02-22T09:34:11.586Z,19.97
2019-02-22T09:36:42.099Z,21.00
2019-02-22T09:39:12.282Z,20.27
2019-02-22T09:41:42.548Z,23.13
2019-02-22T09:44:12.766Z,22.40
2019-02-22T09:46:43.634Z,23.87
2019-02-22T09:49:14.172Z,22.93
2019-02-22T09:51:44.404Z,23.53
2019-02-22T09:54:14.594Z,23.43
2019-02-22T09:56:45.146Z,22.97
2019-02-22T09:59:15.322Z,25.87
2019-02-22T10:01:45.531Z,25.90
2019-02-22T10:04:16.128Z,29.50
2019-02-22T10:06:46.352Z,26.60
2019-02-22T10:09:16.499Z,28.10
2019-02-22T10:11:46.790Z,26.83
2019-02-22T10:14:16.985Z,27.70
2019-02-22T10:16:47.942Z,27.43
2019-02-22T10:19:18.488Z,29.43
2019-02-22T10:21:48.713Z,28.60
2019-02-22T10:24:18.883Z,27.33
2019-02-22T10:26:49.160Z,27.80
2019-02-22T10:29:19.326Z,28.93
2019-02-22T10:31:49.862Z,28.87
2019-02-22T10:34:20.011Z,28.93
2019-02-22T10:36:50.261Z,25.57
2019-02-22T10:39:20.515Z,27.60
2019-02-22T10:41:50.728Z,27.83
2019-02-22T10:44:21.290Z,29.90
2019-02-22T10:46:51.511Z,27.50
2019-02-22T10:49:21.705Z,29.77
2019-02-22T10:51:52.165Z,28.90
2019-02-22T10:54:22.373Z,28.13
2019-02-22T10:56:52.598Z,27.63
2019-02-22T10:59:23.230Z,29.00
2019-02-22T11:01:53.778Z,30.23
2019-02-22T11:04:23.953Z,30.70
2019-02-22T11:06:54.151Z,30.13
2019-02-22T11:09:24.346Z,28.53
2019-02-22T11:11:54.961Z,29.57
2019-02-22T11:14:29.317Z,28.67
2019-02-22T11:16:57.421Z,29.80
2019-02-22T11:19:27.982Z,28.47
2019-02-22T11:21:58.196Z,26.70
2019-02-22T11:24:28.901Z,27.73
2019-02-22T11:26:59.180Z,29.67
2019-02-22T11:29:29.799Z,30.30
2019-02-22T11:31:59.998Z,29.47
2019-02-22T11:34:30.576Z,31.57
2019-02-22T11:37:01.845Z,29.17
2019-02-22T11:39:32.105Z,29.50
2019-02-22T11:42:02.330Z,32.33
2019-02-22T11:44:40.199Z,32.77
2019-02-22T11:47:04.858Z,29.83
2019-02-22T11:49:35.100Z,30.13
2019-02-22T11:52:05.662Z,29.37
2019-02-22T11:54:35.833Z,30.63
2019-02-22T11:57:06.687Z,30.97
2019-02-22T11:59:37.046Z,28.13
2019-02-22T12:02:07.684Z,29.67
2019-02-22T12:04:37.872Z,29.70
2019-02-22T12:07:08.446Z,30.70
2019-02-22T12:09:38.646Z,29.27
2019-02-22T12:12:08.928Z,32.73
2019-02-22T12:14:39.260Z,29.67
2019-02-22T12:17:09.498Z,30.20
2019-02-22T12:19:39.716Z,28.27
2019-02-22T12:22:09.868Z,27.73
2019-02-22T12:24:40.109Z,29.30
2019-02-22T12:27:10.340Z,28.40
2019-02-22T12:29:40.576Z,26.10
2019-02-22T12:32:10.795Z,29.23
2019-02-22T12:34:41.306Z,28.30
2019-02-22T12:37:11.457Z,29.40
2019-02-22T12:39:41.966Z,28.80
2019-02-22T12:42:12.556Z,30.60
2019-02-22T12:44:42.756Z,31.93
2019-02-22T12:47:12.956Z,32.43
2019-02-22T12:49:43.202Z,31.67
2019-02-22T12:52:13.510Z,30.23
2019-02-22T12:54:43.795Z,31.53
2019-02-22T12:57:13.980Z,30.63
2019-02-22T12:59:44.176Z,27.60
2019-02-22T13:02:14.701Z,30.87
2019-02-22T13:04:44.911Z,28.47
2019-02-22T13:07:15.189Z,29.30
2019-02-22T13:09:45.301Z,29.00
2019-02-22T13:12:17.424Z,27.43
2019-02-22T13:14:47.461Z,29.97
2019-02-22T13:17:17.619Z,27.63
2019-02-22T13:19:47.853Z,26.63
2019-02-22T13:22:18.081Z,28.57
2019-02-22T13:24:48.285Z,29.07
2019-02-22T13:27:19.302Z,27.93
2019-02-22T13:29:49.922Z,27.53
2019-02-22T13:32:20.746Z,29.20
2019-02-22T13:34:50.916Z,28.27
2019-02-22T13:37:21.500Z,29.27
2019-02-22T13:39:51.693Z,27.37
2019-02-22T13:42:21.928Z,27.80
2019-02-22T13:44:52.199Z,28.73
2019-02-22T13:47:22.827Z,29.03
2019-02-22T13:49:53.262Z,27.77
2019-02-22T13:52:23.378Z,27.57
2019-02-22T13:54:53.580Z,29.80
2019-02-22T13:57:23.798Z,28.77
2019-02-22T13:59:53.992Z,28.07
2019-02-22T14:02:24.290Z,28.47
2019-02-22T14:04:54.393Z,29.63
2019-02-22T14:07:24.609Z,29.37
2019-02-22T14:09:55.251Z,36.33
2019-02-22T14:12:26.140Z,35.07
2019-02-22T14:14:56.340Z,35.30
2019-02-22T14:17:26.869Z,37.70
2019-02-22T14:19:57.106Z,36.17
2019-02-22T14:22:27.333Z,37.60
2019-02-22T14:24:57.542Z,36.87
2019-02-22T14:27:27.771Z,35.93
2019-02-22T14:29:57.970Z,36.87
2019-02-22T14:32:28.217Z,35.40
2019-02-22T14:34:58.482Z,36.50
2019-02-22T14:37:28.789Z,34.47
2019-02-22T14:40:03.457Z,36.07
2019-02-22T14:42:31.435Z,35.60
2019-02-22T14:45:01.999Z,34.77
2019-02-22T14:47:32.820Z,36.10
2019-02-22T14:50:03.278Z,35.57
2019-02-22T14:52:33.559Z,40.30
2019-02-22T14:55:03.748Z,38.40
2019-02-22T14:57:33.946Z,38.67
2019-02-22T15:00:04.809Z,39.10
2019-02-22T15:02:35.421Z,40.27
2019-02-22T15:05:08.965Z,35.87
2019-02-22T15:07:38.148Z,39.63
2019-02-22T15:10:08.658Z,38.50
2019-02-22T15:12:38.962Z,37.57
2019-02-22T15:15:09.969Z,36.90
2019-02-22T15:17:58.508Z,39.80
2019-02-22T15:20:29.096Z,39.40
2019-02-22T15:22:59.359Z,38.00
2019-02-22T15:25:29.665Z,35.30
2019-02-22T15:27:59.890Z,36.47
2019-02-22T15:30:30.108Z,34.60
2019-02-22T15:33:00.423Z,35.50
2019-02-22T15:35:30.901Z,33.23
2019-02-22T15:38:01.524Z,36.13
2019-02-22T15:40:32.018Z,35.73
2019-02-22T15:43:03.448Z,33.30
2019-02-22T15:45:33.768Z,35.77
2019-02-22T15:48:04.118Z,37.33
2019-02-22T15:50:34.762Z,39.60
2019-02-22T15:53:05.212Z,36.67
2019-02-22T15:55:36.168Z,35.97
2019-02-22T15:58:06.470Z,35.70
2019-02-22T16:00:37.284Z,33.30
2019-02-22T16:03:07.646Z,35.07
2019-02-22T16:05:41.481Z,36.03
2019-02-22T16:08:12.075Z,38.43
2019-02-22T16:10:42.917Z,35.60
2019-02-22T16:13:13.463Z,34.53
2019-02-22T16:15:43.891Z,34.83
2019-02-22T16:18:14.394Z,35.20
2019-02-22T16:20:44.604Z,35.90
2019-02-22T16:23:15.268Z,36.63
2019-02-22T16:25:45.439Z,35.97
2019-02-22T16:28:15.924Z,36.33
2019-02-22T16:30:46.263Z,36.50
2019-02-22T16:33:16.482Z,35.37
2019-02-22T16:35:46.680Z,33.43
2019-02-22T16:38:16.903Z,31.47
2019-02-22T16:40:47.166Z,31.73
2019-02-22T16:43:17.368Z,32.00
2019-02-22T16:45:47.906Z,30.77
2019-02-22T16:48:18.123Z,31.30
2019-02-22T16:50:48.321Z,29.90
2019-02-22T16:53:18.543Z,29.00
2019-02-22T16:55:49.052Z,29.00
2019-02-22T16:58:19.265Z,27.30
2019-02-22T17:00:49.522Z,27.13
2019-02-22T17:03:19.825Z,25.23
2019-02-22T17:05:50.025Z,26.27
2019-02-22T17:08:20.241Z,25.47
2019-02-22T17:10:50.440Z,24.40
2019-02-22T17:13:22.289Z,23.13
2019-02-22T17:15:52.441Z,22.53
2019-02-22T17:18:22.705Z,24.83
2019-02-22T17:20:52.993Z,22.53
2019-02-22T17:23:23.215Z,22.73
2019-02-22T17:25:53.405Z,24.07
2019-02-22T17:28:23.657Z,21.33
2019-02-22T17:30:54.171Z,21.60
2019-02-22T17:33:24.773Z,23.20
2019-02-22T17:35:55.017Z,23.07
2019-02-22T17:38:25.341Z,22.43
2019-02-22T17:40:55.553Z,21.77
2019-02-22T17:43:25.913Z,24.10
2019-02-22T17:45:56.205Z,23.67
2019-02-22T17:48:26.438Z,23.00
2019-02-22T17:50:56.647Z,23.00
2019-02-22T17:53:26.954Z,21.37
2019-02-22T17:55:57.193Z,22.30
2019-02-22T17:58:27.826Z,23.57
2019-02-22T18:00:58.221Z,24.23
2019-02-22T18:03:28.545Z,23.60
2019-02-22T18:05:58.771Z,23.23
2019-02-22T18:08:29.028Z,20.73
2019-02-22T18:10:59.220Z,21.93
2019-02-22T18:13:29.858Z,21.73
2019-02-22T18:16:00.073Z,22.47
2019-02-22T18:18:30.334Z,22.03
2019-02-22T18:21:00.627Z,21.67
2019-02-22T18:23:31.287Z,22.47
2019-02-22T18:26:02.056Z,21.97
2019-02-22T18:28:32.337Z,22.10
2019-02-22T18:31:02.630Z,22.00
2019-02-22T18:33:32.904Z,23.00
2019-02-22T18:36:03.055Z,24.13
2019-02-22T18:38:33.271Z,22.17
2019-02-22T18:41:03.592Z,23.10
2019-02-22T18:43:33.912Z,24.47
2019-02-22T18:46:04.151Z,22.53
2019-02-22T18:48:34.776Z,21.63
2019-02-22T18:51:04.994Z,22.70
2019-02-22T18:53:35.248Z,22.77
2019-02-22T18:56:05.476Z,23.10
2019-02-22T18:58:36.440Z,22.13
2019-02-22T19:01:06.674Z,22.13
2019-02-22T19:03:37.192Z,19.30
2019-02-22T19:06:07.549Z,22.23
2019-02-22T19:08:37.761Z,21.03
2019-02-22T19:11:08.066Z,20.60
2019-02-22T19:13:38.396Z,19.13
2019-02-22T19:16:08.925Z,21.10
2019-02-22T19:18:39.150Z,19.03
2019-02-22T19:21:09.346Z,18.60
2019-02-22T19:23:39.573Z,19.40
2019-02-22T19:26:09.796Z,18.17
2019-02-22T19:28:40.103Z,17.47
2019-02-22T19:31:10.386Z,17.83
2019-02-22T19:33:40.814Z,19.30
2019-02-22T19:36:11.071Z,18.07
2019-02-22T19:38:41.319Z,17.77
2019-02-22T19:41:11.536Z,19.30
2019-02-22T19:43:41.846Z,20.20
2019-02-22T19:46:12.136Z,18.37
2019-02-22T19:48:42.442Z,17.70
2019-02-22T19:51:12.685Z,18.47
2019-02-22T19:53:43.377Z,17.60
2019-02-22T19:56:13.691Z,18.90
2019-02-22T19:58:44.454Z,19.13
2019-02-22T20:01:14.649Z,19.07
2019-02-22T20:03:45.022Z,20.57
2019-02-22T20:06:15.249Z,20.47
2019-02-22T20:08:45.599Z,21.60
2019-02-22T20:11:16.187Z,23.33
2019-02-22T20:13:47.100Z,22.10
2019-02-22T20:16:17.432Z,21.70
2019-02-22T20:18:47.734Z,20.60
2019-02-22T20:21:17.941Z,22.77
2019-02-22T20:23:48.301Z,24.00
2019-02-22T20:26:18.501Z,23.23
2019-02-22T20:28:49.130Z,23.63
2019-02-22T20:31:20.732Z,22.90
2019-02-22T20:33:51.111Z,23.87
2019-02-22T20:36:28.480Z,24.67
2019-02-22T20:38:53.717Z,21.43
2019-02-22T20:41:23.933Z,23.43
2019-02-22T20:43:54.473Z,24.37
2019-02-22T20:46:26.315Z,23.97
2019-02-22T20:49:00.721Z,27.03
2019-02-22T20:51:28.459Z,24.27
2019-02-22T20:53:58.914Z,25.33
2019-02-22T20:56:29.101Z,24.30
2019-02-22T20:58:59.311Z,24.57
2019-02-22T21:01:30.005Z,25.63
2019-02-22T21:04:00.271Z,23.53
2019-02-22T21:06:30.448Z,24.27
2019-02-22T21:09:01.008Z,27.17
2019-02-22T21:11:32.854Z,25.20
2019-02-22T21:14:03.138Z,24.87
2019-02-22T21:16:33.470Z,27.00
2019-02-22T21:19:04.124Z,27.47
2019-02-22T21:21:34.328Z,26.27
2019-02-22T21:24:04.616Z,26.23
2019-02-22T21:26:34.798Z,27.83
2019-02-22T21:29:05.103Z,28.30
2019-02-22T21:31:35.281Z,27.77
2019-02-22T21:34:05.471Z,27.90
2019-02-22T21:36:35.664Z,27.27
2019-02-22T21:39:06.704Z,28.37
2019-02-22T21:41:38.080Z,29.13
2019-02-22T21:44:08.290Z,28.10
2019-02-22T21:46:38.472Z,27.37
2019-02-22T21:49:08.693Z,29.90
2019-02-22T21:51:39.205Z,28.60
2019-02-22T21:54:09.425Z,27.27
2019-02-22T21:56:39.678Z,31.93
2019-02-22T21:59:10.281Z,30.37
2019-02-22T22:01:40.587Z,30.57
2019-02-22T22:04:10.821Z,28.87
2019-02-22T22:06:41.038Z,28.93
2019-02-22T22:09:12.012Z,30.50
2019-02-22T22:11:42.432Z,29.87
2019-02-22T22:14:12.714Z,29.57
2019-02-22T22:16:43.020Z,30.83
2019-02-22T22:19:13.248Z,29.43
2019-02-22T22:21:45.173Z,31.83
2019-02-22T22:24:15.403Z,28.67
2019-02-22T22:26:45.608Z,31.23
2019-02-22T22:29:15.863Z,31.23
2019-02-22T22:31:46.047Z,30.57
2019-02-22T22:34:16.347Z,30.20
2019-02-22T22:36:46.873Z,30.80
2019-02-22T22:39:17.106Z,30.60
2019-02-22T22:41:47.863Z,31.37
2019-02-22T22:44:18.516Z,30.07
2019-02-22T22:46:48.700Z,30.63
2019-02-22T22:49:19.002Z,29.63
2019-02-22T22:51:49.660Z,33.33
2019-02-22T22:54:20.341Z,28.93
2019-02-22T22:56:50.609Z,31.40
2019-02-22T22:59:20.834Z,30.07
2019-02-22T23:01:51.148Z,28.43
2019-02-22T23:04:22.912Z,30.17
2019-02-22T23:06:53.225Z,28.97
2019-02-22T23:09:24.309Z,26.60
2019-02-22T23:11:54.686Z,26.73
2019-02-22T23:14:24.910Z,26.13
2019-02-22T23:16:55.112Z,28.90
2019-02-22T23:19:25.676Z,27.20
2019-02-22T23:21:55.880Z,26.63
2019-02-22T23:24:26.098Z,28.00
2019-02-22T23:26:57.754Z,23.23
2019-02-22T23:29:28.032Z,25.57
2019-02-22T23:31:59.722Z,24.33
2019-02-22T23:34:29.965Z,24.30
2019-02-22T23:37:00.190Z,23.53
2019-02-22T23:39:30.700Z,25.10
2019-02-22T23:42:00.910Z,24.03
2019-02-22T23:44:31.479Z,24.50
2019-02-22T23:47:02.112Z,23.60
2019-02-22T23:49:32.327Z,24.30
2019-02-22T23:52:02.515Z,25.70
2019-02-22T23:54:32.674Z,25.20
2019-02-22T23:57:02.886Z,24.73
2019-02-22T23:59:33.041Z,23.50
